Ionas Dragoumis, Greece

11:04 PM EEST on July 23, 2016 (GMT +0300)
Ohrid | | Change Station

Elev 2313 ft 41.18 °N, 20.74 °E | Updated 4 minutes ago

Partly Cloudy
Partly Cloudy
70 °F
Feels Like 70 °F
N
2
Wind Variable Wind from NNW

Today
High -- | Low -- °F
--% Chance of Precip.
Yesterday
High -- | Low -- °F
Precip. -- in
Pressure 30.06 in
Visibility 6.2 miles
Clouds Few 4000 ft
Dew Point 57 °F
Humidity 64%
Rainfall 0.00 in
Snow Depth Not available.
6:24 AM 8:58 PM
Waning Gibbous, 83% visible
METAR LWOH 232000Z 34002KT 9999 FEW040 21/14 Q1018
Pressure 30.06 in
Visibility 6.2 miles
Clouds Few 4000 ft
Dew Point 57 °F
Humidity 64%
Rainfall 0.00 in
Snow Depth Not available.
6:24 AM 8:58 PM
Waning Gibbous, 83% visible
METAR LWOH 232000Z 34002KT 9999 FEW040 21/14 Q1018

10-Day Weather Forecast

×

Almanac

Astronomy

Jul. 23, 2016 Rise Set
Actual Time
Civil Twilight
Nautical Twilight
Astronomical Twilight
Moon
Length of Visible Light
Length of Day
Tomorrow will be .
, % of the Moon is Illuminated

Today's Extremes

Country Highs Country Lows

Community

WunderPhotos

Upload Photos

1,926,909 photos uploaded!

WunderBlog® & News

Nearby

Air Quality

  Air Quality AQ Index Pollutant
Not available.

Snow Depth

Station Depth Elevation

Earthquake Activity

City Distance Mag. Time & Date
Minimum magnitude displayed is 2.5.

Coastal Water Temperatures

Place Temperature

Stations

Nearby Weather Stations

Station Location Temp. Windchill Dew Point Humidity Wind Precip. Elev Updated Type